createdAt,value
2019-04-07T00:02:22.741Z,1011.43
2019-04-07T00:04:52.280Z,941.20
2019-04-07T00:07:21.312Z,927.30
2019-04-07T00:09:50.351Z,1083.13
2019-04-07T00:12:19.442Z,969.10
2019-04-07T00:14:48.706Z,915.97
2019-04-07T00:17:17.914Z,902.53
2019-04-07T00:19:47.004Z,930.10
2019-04-07T00:22:16.038Z,937.20
2019-04-07T00:24:45.061Z,841.13
2019-04-07T00:27:14.428Z,871.10
2019-04-07T00:29:44.107Z,852.33
2019-04-07T00:32:13.215Z,901.73
2019-04-07T00:34:42.381Z,887.83
2019-04-07T00:37:11.711Z,742.33
2019-04-07T00:39:42.257Z,781.17
2019-04-07T00:42:11.511Z,602.10
2019-04-07T00:44:41.109Z,592.47
2019-04-07T00:47:10.638Z,664.27
2019-04-07T00:49:40.161Z,514.60
2019-04-07T00:52:10.818Z,588.00
2019-04-07T00:54:40.260Z,555.50
2019-04-07T00:57:09.862Z,609.90
2019-04-07T00:59:38.806Z,463.40
2019-04-07T01:02:07.868Z,593.90
2019-04-07T01:04:36.920Z,642.93
2019-04-07T01:07:05.964Z,607.80
2019-04-07T01:09:35.273Z,536.33
2019-04-07T01:12:04.947Z,570.00
2019-04-07T01:14:34.042Z,464.60
2019-04-07T01:17:03.648Z,523.50
2019-04-07T01:19:33.242Z,483.97
2019-04-07T01:22:02.385Z,419.83
2019-04-07T01:24:31.581Z,465.50
2019-04-07T01:27:00.614Z,412.67
2019-04-07T01:29:29.860Z,408.53
2019-04-07T01:31:59.435Z,396.77
2019-04-07T01:34:28.890Z,320.60
2019-04-07T01:36:58.952Z,383.07
2019-04-07T01:39:28.370Z,291.13
2019-04-07T01:41:59.085Z,296.97
2019-04-07T01:44:29.761Z,324.73
2019-04-07T01:47:00.416Z,286.30
2019-04-07T01:49:31.350Z,335.53
2019-04-07T01:52:02.122Z,298.73
2019-04-07T01:54:33.035Z,247.73
2019-04-07T01:57:04.446Z,317.53
2019-04-07T01:59:35.512Z,270.97
2019-04-07T02:02:07.112Z,294.27
2019-04-07T02:04:37.857Z,232.63
2019-04-07T02:07:08.524Z,295.33
2019-04-07T02:09:39.219Z,242.97
2019-04-07T02:12:10.430Z,284.40
2019-04-07T02:14:41.847Z,273.20
2019-04-07T02:17:13.107Z,315.37
2019-04-07T02:19:44.948Z,242.97
2019-04-07T02:22:15.899Z,231.57
2019-04-07T02:24:46.888Z,227.77
2019-04-07T02:27:17.999Z,237.30
2019-04-07T02:29:48.843Z,199.43
2019-04-07T02:32:19.534Z,193.60
2019-04-07T02:34:50.922Z,188.23
2019-04-07T02:37:22.682Z,175.17
2019-04-07T02:39:54.732Z,173.50
2019-04-07T02:42:25.627Z,131.73
2019-04-07T02:44:57.365Z,141.50
2019-04-07T02:47:28.342Z,104.63
2019-04-07T02:49:57.693Z,84.60
2019-04-07T02:52:30.247Z,105.87
2019-04-07T02:55:01.118Z,112.60
2019-04-07T02:57:31.992Z,87.07
2019-04-07T03:00:02.883Z,98.87
2019-04-07T03:02:34.689Z,91.83
2019-04-07T03:05:06.473Z,95.50
2019-04-07T03:07:37.507Z,104.57
2019-04-07T03:10:09.173Z,104.93
2019-04-07T03:12:40.074Z,65.17
2019-04-07T03:15:11.152Z,67.97
2019-04-07T03:17:42.204Z,76.77
2019-04-07T03:20:13.128Z,81.53
2019-04-07T03:22:44.031Z,85.30
2019-04-07T03:25:15.583Z,85.13
2019-04-07T03:27:46.468Z,87.87
2019-04-07T03:30:17.799Z,70.20
2019-04-07T03:32:52.820Z,69.03
2019-04-07T03:35:25.297Z,54.60
2019-04-07T03:37:54.713Z,63.60
2019-04-07T03:40:25.529Z,74.43
2019-04-07T03:42:56.295Z,84.70
2019-04-07T03:45:28.673Z,76.47
2019-04-07T03:47:59.450Z,89.17
2019-04-07T03:50:30.098Z,92.50
2019-04-07T03:53:01.471Z,105.13
2019-04-07T03:55:32.336Z,105.70
2019-04-07T03:58:03.687Z,113.67
2019-04-07T04:00:36.220Z,77.00
2019-04-07T04:03:07.086Z,87.70
2019-04-07T04:05:37.767Z,93.80
2019-04-07T04:08:09.365Z,76.50
2019-04-07T04:10:40.796Z,63.20
2019-04-07T04:13:12.295Z,64.17
2019-04-07T04:15:43.565Z,59.37
2019-04-07T04:18:38.240Z,68.77
2019-04-07T04:21:09.080Z,46.87
2019-04-07T04:23:41.547Z,48.97
2019-04-07T04:26:09.613Z,39.40
2019-04-07T04:28:39.687Z,43.63
2019-04-07T04:31:09.645Z,47.37
2019-04-07T04:33:38.819Z,46.60
2019-04-07T04:36:08.525Z,49.17
2019-04-07T04:38:38.450Z,51.73
2019-04-07T04:41:07.545Z,49.97
2019-04-07T04:43:36.540Z,60.67
2019-04-07T04:46:09.399Z,53.27
2019-04-07T04:48:37.279Z,39.97
2019-04-07T04:51:35.518Z,52.00
2019-04-07T04:54:02.313Z,46.27
2019-04-07T04:56:31.344Z,79.50
2019-04-07T04:59:00.364Z,49.13
2019-04-07T05:01:29.400Z,65.67
2019-04-07T05:03:58.470Z,48.67
2019-04-07T05:06:27.777Z,94.40
2019-04-07T05:08:56.756Z,63.30
2019-04-07T05:11:26.055Z,51.97
2019-04-07T05:13:55.482Z,68.27
2019-04-07T05:16:24.619Z,78.77
2019-04-07T05:18:54.098Z,61.17
2019-04-07T05:21:23.172Z,58.37
2019-04-07T05:23:52.211Z,63.03
2019-04-07T05:26:21.246Z,91.07
2019-04-07T05:28:50.477Z,207.97
2019-04-07T05:31:19.930Z,171.57
2019-04-07T05:33:49.846Z,282.77
2019-04-07T05:36:19.482Z,398.30
2019-04-07T05:38:48.615Z,552.30
2019-04-07T05:41:18.312Z,594.37
2019-04-07T05:43:48.083Z,641.20
2019-04-07T05:46:17.751Z,890.73
2019-04-07T05:48:47.568Z,1049.83
2019-04-07T05:51:17.968Z,1159.57
2019-04-07T05:53:48.319Z,1285.47
2019-04-07T05:56:18.559Z,1585.07
2019-04-07T05:58:48.285Z,1838.50
2019-04-07T06:01:22.577Z,1771.80
2019-04-07T06:03:48.070Z,1699.30
2019-04-07T06:06:19.098Z,1544.23
2019-04-07T06:08:48.566Z,1073.40
2019-04-07T06:11:18.505Z,910.53
2019-04-07T06:13:47.576Z,857.40
2019-04-07T06:16:18.525Z,818.73
2019-04-07T06:18:47.737Z,736.50
2019-04-07T06:21:17.334Z,712.67
2019-04-07T06:23:46.358Z,741.73
2019-04-07T06:26:15.404Z,834.00
2019-04-07T06:28:49.007Z,891.03
2019-04-07T06:31:15.158Z,901.00
2019-04-07T06:33:44.642Z,908.40
2019-04-07T06:36:17.512Z,957.33
2019-04-07T06:38:50.993Z,1002.13
2019-04-07T06:41:16.145Z,1062.50
2019-04-07T06:43:45.305Z,1012.80
2019-04-07T06:46:16.202Z,990.77
2019-04-07T06:48:47.161Z,962.88
2019-04-07T06:51:18.895Z,997.20
2019-04-07T06:53:58.960Z,976.65
2019-04-07T06:56:32.195Z,904.52
2019-04-07T06:59:02.061Z,959.02
2019-04-07T07:01:32.807Z,991.45
2019-04-07T07:04:09.024Z,962.12
2019-04-07T07:06:35.764Z,957.60
2019-04-07T07:09:08.291Z,1018.83
2019-04-07T07:11:42.810Z,1018.00
2019-04-07T07:14:42.607Z,999.53
2019-04-07T07:17:07.535Z,1038.30
2019-04-07T07:19:36.713Z,1041.35
2019-04-07T07:22:12.706Z,1051.23
2019-04-07T07:24:38.155Z,1037.13
2019-04-07T07:27:09.228Z,1042.38
2019-04-07T07:29:37.800Z,1032.30
2019-04-07T07:32:06.811Z,1057.45
2019-04-07T07:34:35.908Z,1032.63
2019-04-07T07:37:05.229Z,1034.80
2019-04-07T07:39:34.221Z,1030.42
2019-04-07T07:42:03.961Z,989.27
2019-04-07T07:44:35.875Z,1002.35
2019-04-07T07:47:03.653Z,993.58
2019-04-07T07:49:35.180Z,1009.75
2019-04-07T07:52:03.409Z,992.90
2019-04-07T07:54:32.398Z,960.52
2019-04-07T07:57:01.409Z,990.90
2019-04-07T07:59:33.543Z,1015.98
2019-04-07T08:02:01.359Z,995.10
2019-04-07T08:04:30.530Z,985.67
2019-04-07T08:07:02.156Z,1003.60
2019-04-07T08:09:30.651Z,1019.55
2019-04-07T08:12:01.651Z,978.48
2019-04-07T08:14:30.419Z,972.17
2019-04-07T08:17:02.260Z,988.78
2019-04-07T08:19:30.880Z,985.90
2019-04-07T08:22:00.723Z,998.17
2019-04-07T08:24:30.418Z,1001.15
2019-04-07T08:27:00.534Z,989.58
2019-04-07T08:29:30.142Z,1006.28
2019-04-07T08:32:00.002Z,994.90
2019-04-07T08:34:31.516Z,999.83
2019-04-07T08:37:00.776Z,1015.02
2019-04-07T08:39:33.565Z,1028.50
2019-04-07T08:42:01.306Z,1037.10
2019-04-07T08:44:31.385Z,1042.30
2019-04-07T08:47:01.300Z,1047.00
2019-04-07T08:49:32.738Z,1020.97
2019-04-07T08:52:04.038Z,1050.75
2019-04-07T08:54:31.880Z,1018.58
2019-04-07T08:57:00.881Z,1057.50
2019-04-07T09:02:59.175Z,1053.73
2019-04-07T09:05:20.542Z,1001.20
2019-04-07T09:07:48.241Z,1027.17
2019-04-07T09:10:20.651Z,990.90
2019-04-07T09:12:49.953Z,1027.47
2019-04-07T09:15:21.179Z,1011.07
2019-04-07T09:17:51.782Z,977.88
2019-04-07T09:20:22.428Z,1059.70
2019-04-07T09:22:54.974Z,1026.53
2019-04-07T09:25:26.090Z,1041.95
2019-04-07T09:27:57.254Z,1060.35
2019-04-07T09:30:26.328Z,1036.95
2019-04-07T09:32:56.993Z,1021.73
2019-04-07T09:35:27.650Z,1053.00
2019-04-07T09:37:58.769Z,1006.35
2019-04-07T09:40:30.316Z,1025.35
2019-04-07T09:43:42.748Z,1047.35
2019-04-07T09:46:13.640Z,1042.48
2019-04-07T09:48:44.342Z,1061.85
2019-04-07T09:51:13.545Z,1026.95
2019-04-07T09:53:44.823Z,1059.35
2019-04-07T09:56:16.178Z,1036.50
2019-04-07T09:58:46.995Z,1054.33
2019-04-07T10:01:19.970Z,1087.78
2019-04-07T10:03:50.009Z,1112.63
2019-04-07T10:06:20.688Z,1060.20
2019-04-07T10:08:52.176Z,1339.50
2019-04-07T10:11:22.846Z,1086.85
2019-04-07T10:13:53.566Z,1087.30
2019-04-07T10:16:24.226Z,1074.05
2019-04-07T10:18:55.233Z,1080.72
2019-04-07T10:21:26.905Z,1049.95
2019-04-07T10:23:56.355Z,1057.50
2019-04-07T10:26:27.047Z,1048.15
2019-04-07T10:28:57.724Z,1086.83
2019-04-07T10:31:28.392Z,1057.23
2019-04-07T10:33:59.063Z,1036.78
2019-04-07T10:36:29.711Z,994.30
2019-04-07T10:39:00.819Z,968.52
2019-04-07T10:41:33.404Z,1110.35
2019-04-07T10:44:04.937Z,1067.83
2019-04-07T10:46:36.242Z,1022.52
2019-04-07T10:49:07.049Z,1019.27
2019-04-07T10:51:37.701Z,1056.85
2019-04-07T10:54:06.687Z,995.95
2019-04-07T10:56:37.360Z,1010.35
2019-04-07T10:59:07.986Z,1112.58
2019-04-07T11:01:38.669Z,1049.85
2019-04-07T11:04:09.462Z,1030.80
2019-04-07T11:06:40.602Z,1057.50
2019-04-07T11:09:11.610Z,1016.00
2019-04-07T11:11:43.712Z,1011.65
2019-04-07T11:14:14.395Z,969.05
2019-04-07T11:16:45.282Z,964.93
2019-04-07T11:19:35.563Z,1013.45
2019-04-07T11:22:05.674Z,973.72
2019-04-07T11:24:36.994Z,944.45
2019-04-07T11:27:08.139Z,984.05
2019-04-07T11:29:39.659Z,1043.50
2019-04-07T11:32:10.474Z,961.50
2019-04-07T11:34:41.401Z,985.28
2019-04-07T11:37:12.920Z,1050.03
2019-04-07T11:39:44.693Z,1005.80
2019-04-07T11:42:15.372Z,957.73
2019-04-07T11:44:46.778Z,1038.10
2019-04-07T11:47:17.563Z,941.62
2019-04-07T11:49:48.516Z,914.63
2019-04-07T11:52:19.868Z,947.50
2019-04-07T11:54:51.149Z,949.38
2019-04-07T11:57:22.572Z,1026.68
2019-04-07T11:59:54.020Z,924.20
2019-04-07T12:02:24.878Z,947.98
2019-04-07T12:04:55.547Z,971.92
2019-04-07T12:07:26.288Z,984.00
2019-04-07T12:09:56.967Z,960.85
2019-04-07T12:12:28.878Z,1023.67
2019-04-07T12:14:59.604Z,993.48
2019-04-07T12:17:30.267Z,1000.90
2019-04-07T12:20:00.956Z,970.85
2019-04-07T12:22:30.674Z,1055.00
2019-04-07T12:25:03.213Z,1001.35
2019-04-07T12:27:34.506Z,965.60
2019-04-07T12:30:06.430Z,1032.38
2019-04-07T12:32:37.702Z,1007.55
2019-04-07T12:35:08.404Z,994.48
2019-04-07T12:37:42.028Z,1028.63
2019-04-07T12:40:12.898Z,1007.60
2019-04-07T12:42:43.584Z,1000.62
2019-04-07T12:45:14.518Z,1028.63
2019-04-07T12:47:46.199Z,1048.10
2019-04-07T12:50:18.889Z,995.92
2019-04-07T12:52:49.280Z,1052.03
2019-04-07T12:55:20.766Z,1048.08
2019-04-07T12:57:52.080Z,1060.72
2019-04-07T13:00:24.870Z,1040.78
2019-04-07T13:02:58.564Z,989.15
2019-04-07T13:05:29.764Z,966.83
2019-04-07T13:08:00.512Z,1117.35
2019-04-07T13:10:32.497Z,1009.43
2019-04-07T13:13:03.768Z,974.30
2019-04-07T13:15:34.438Z,1321.45
2019-04-07T13:18:07.210Z,1107.25
2019-04-07T13:20:37.497Z,1071.58
2019-04-07T13:23:08.247Z,1012.10
2019-04-07T13:25:39.482Z,1046.65
2019-04-07T13:28:10.961Z,1065.83
2019-04-07T13:30:41.725Z,1234.13
2019-04-07T13:33:12.383Z,1054.23
2019-04-07T13:35:43.076Z,1263.88
2019-04-07T13:38:13.754Z,1055.95
2019-04-07T13:40:46.912Z,1045.73
2019-04-07T13:43:17.550Z,987.20
2019-04-07T13:45:48.282Z,994.55
2019-04-07T13:48:20.823Z,1048.78
2019-04-07T13:50:49.661Z,991.45
2019-04-07T13:53:20.706Z,1036.35
2019-04-07T13:55:52.034Z,1040.20
2019-04-07T13:58:23.863Z,1012.35
2019-04-07T14:00:55.804Z,1022.72
2019-04-07T14:03:26.674Z,1110.10
2019-04-07T14:05:57.926Z,1066.20
2019-04-07T14:08:29.924Z,1393.97
2019-04-07T14:11:01.499Z,1069.03
2019-04-07T14:13:31.149Z,1043.55
2019-04-07T14:16:01.936Z,1033.73
2019-04-07T14:18:32.605Z,1070.50
2019-04-07T14:21:04.002Z,1024.93
2019-04-07T14:23:35.323Z,1079.28
2019-04-07T14:26:06.740Z,1136.10
2019-04-07T14:28:37.444Z,1073.03
2019-04-07T14:31:09.283Z,1063.53
2019-04-07T14:33:41.263Z,1076.13
2019-04-07T14:36:12.891Z,1038.33
2019-04-07T14:38:43.551Z,1031.78
2019-04-07T14:41:14.242Z,1044.95
2019-04-07T14:43:44.871Z,976.05
2019-04-07T14:46:16.199Z,1003.27
2019-04-07T14:48:45.441Z,1068.00
2019-04-07T14:51:16.287Z,1037.47
2019-04-07T14:53:47.310Z,1098.23
2019-04-07T14:56:18.703Z,1048.60
2019-04-07T14:58:52.579Z,1043.88
2019-04-07T15:01:22.365Z,1071.30
2019-04-07T15:03:52.455Z,1041.65
2019-04-07T15:06:21.732Z,1032.90
2019-04-07T15:08:52.416Z,1043.25
2019-04-07T15:11:21.361Z,1021.30
2019-04-07T15:13:50.592Z,1045.68
2019-04-07T15:16:19.707Z,1092.28
2019-04-07T15:18:50.126Z,1101.55
2019-04-07T15:21:19.962Z,1035.20
2019-04-07T15:23:48.956Z,1006.00
2019-04-07T15:26:18.046Z,1005.55
2019-04-07T15:28:47.008Z,1097.58
2019-04-07T15:31:18.328Z,1030.22
2019-04-07T15:33:46.818Z,1030.20
2019-04-07T15:36:18.775Z,1086.78
2019-04-07T15:38:47.579Z,1053.68
2019-04-07T15:41:18.237Z,1033.55
2019-04-07T15:43:47.157Z,1032.03
2019-04-07T15:46:18.069Z,1126.45
2019-04-07T15:48:48.425Z,1052.83
2019-04-07T15:51:17.623Z,1093.40
2019-04-07T15:53:51.344Z,1125.15
2019-04-07T15:56:18.822Z,1076.53
2019-04-07T15:58:48.403Z,1045.43
2019-04-07T16:01:17.520Z,1021.75
2019-04-07T16:03:50.539Z,1040.22
2019-04-07T16:06:17.480Z,1024.22
2019-04-07T16:08:46.851Z,1038.18
2019-04-07T16:11:16.833Z,1002.58
2019-04-07T16:13:47.527Z,1198.83
2019-04-07T16:16:16.613Z,1020.80
2019-04-07T16:18:46.568Z,1007.40
2019-04-07T16:21:16.290Z,1068.58
2019-04-07T16:23:48.754Z,1029.60
2019-04-07T16:26:16.063Z,1023.67
2019-04-07T16:28:46.464Z,1006.35
2019-04-07T16:31:16.725Z,995.95
2019-04-07T16:33:46.499Z,1014.05
2019-04-07T16:36:15.735Z,985.80
2019-04-07T16:38:44.753Z,1023.73
2019-04-07T16:41:14.781Z,997.20
2019-04-07T16:43:44.000Z,945.83
2019-04-07T16:46:19.654Z,999.77
2019-04-07T16:48:43.659Z,968.30
2019-04-07T16:51:13.418Z,988.72
2019-04-07T16:53:43.344Z,993.75
2019-04-07T16:56:13.462Z,1025.80
2019-04-07T16:58:42.494Z,987.00
2019-04-07T17:01:13.178Z,972.85
2019-04-07T17:03:43.084Z,1022.35
2019-04-07T17:06:12.441Z,991.20
2019-04-07T17:08:42.242Z,973.08
2019-04-07T17:11:11.543Z,984.52
2019-04-07T17:13:42.687Z,1020.22
2019-04-07T17:16:12.208Z,975.28
2019-04-07T17:18:43.068Z,998.87
2019-04-07T17:21:15.090Z,967.90
2019-04-07T17:23:45.369Z,983.23
2019-04-07T17:26:14.640Z,955.52
2019-04-07T17:28:46.119Z,980.70
2019-04-07T17:31:14.460Z,971.70
2019-04-07T17:33:43.478Z,956.95
2019-04-07T17:36:15.376Z,967.15
2019-04-07T17:38:45.323Z,966.32
2019-04-07T17:41:17.202Z,963.78
2019-04-07T17:43:54.097Z,964.80
2019-04-07T17:46:19.183Z,966.08
2019-04-07T17:48:53.327Z,976.48
2019-04-07T17:51:20.420Z,939.15
2019-04-07T17:53:51.728Z,972.10
2019-04-07T17:56:22.498Z,940.67
2019-04-07T17:58:53.443Z,958.68
2019-04-07T18:01:24.925Z,925.88
2019-04-07T18:03:56.318Z,923.98
2019-04-07T18:06:30.862Z,916.00
2019-04-07T18:09:06.210Z,926.82
2019-04-07T18:11:29.325Z,919.20
2019-04-07T18:14:01.125Z,888.38
2019-04-07T18:16:32.628Z,907.55
2019-04-07T18:19:03.843Z,922.23
2019-04-07T18:21:34.636Z,912.75
2019-04-07T18:24:05.343Z,907.87
2019-04-07T18:26:39.648Z,911.13
2019-04-07T18:29:06.919Z,921.80
2019-04-07T18:31:40.195Z,900.83
2019-04-07T18:34:10.043Z,893.00
2019-04-07T18:36:40.676Z,882.20
2019-04-07T18:39:11.336Z,866.30
2019-04-07T18:41:42.148Z,893.13
2019-04-07T18:44:12.945Z,904.57
2019-04-07T18:46:47.783Z,854.10
2019-04-07T18:49:16.772Z,862.80
2019-04-07T18:52:11.159Z,850.13
2019-04-07T18:54:42.385Z,796.73
2019-04-07T18:57:11.908Z,854.97
2019-04-07T18:59:43.291Z,830.37
2019-04-07T19:02:16.263Z,852.87
2019-04-07T19:04:45.646Z,832.83
2019-04-07T19:07:17.283Z,821.57
2019-04-07T19:09:49.751Z,822.87
2019-04-07T19:12:22.949Z,822.53
2019-04-07T19:15:01.626Z,816.13
2019-04-07T19:17:25.573Z,830.00
2019-04-07T19:19:57.454Z,764.07
2019-04-07T19:22:28.325Z,784.00
2019-04-07T19:24:59.303Z,804.17
2019-04-07T19:27:31.285Z,811.60
2019-04-07T19:30:02.135Z,812.47
2019-04-07T19:32:34.253Z,817.17
2019-04-07T19:35:05.929Z,805.13
2019-04-07T19:37:37.728Z,781.33
2019-04-07T19:40:08.458Z,770.70
2019-04-07T19:42:41.719Z,767.13
2019-04-07T19:45:11.518Z,754.90
2019-04-07T19:47:42.175Z,769.30
2019-04-07T19:50:13.179Z,769.30
2019-04-07T19:52:43.852Z,786.80
2019-04-07T19:55:14.530Z,725.03
2019-04-07T19:57:45.435Z,738.53
2019-04-07T20:00:21.915Z,749.03
2019-04-07T20:02:48.867Z,749.50
2019-04-07T20:05:19.805Z,741.10
2019-04-07T20:07:50.559Z,750.97
2019-04-07T20:10:23.805Z,736.90
2019-04-07T20:12:54.162Z,753.80
2019-04-07T20:15:24.845Z,722.27
2019-04-07T20:17:56.452Z,722.47
2019-04-07T20:20:28.008Z,724.23
2019-04-07T20:22:58.965Z,683.60
2019-04-07T20:25:31.126Z,714.40
2019-04-07T20:28:02.740Z,697.67
2019-04-07T20:30:33.666Z,735.10
2019-04-07T20:33:04.382Z,725.07
2019-04-07T20:35:35.064Z,734.07
2019-04-07T20:38:06.272Z,760.27
2019-04-07T20:40:39.638Z,829.40
2019-04-07T20:43:10.144Z,786.50
2019-04-07T20:45:40.896Z,813.87
2019-04-07T20:48:13.583Z,787.40
2019-04-07T20:53:39.448Z,882.20
2019-04-07T20:56:12.910Z,776.07
2019-04-07T20:58:49.764Z,872.73
2019-04-07T21:01:18.815Z,795.07
2019-04-07T21:03:49.605Z,867.50
2019-04-07T21:06:19.363Z,867.03
2019-04-07T21:08:50.011Z,860.20
2019-04-07T21:11:21.567Z,962.33
2019-04-07T21:13:52.493Z,956.63
2019-04-07T21:16:27.574Z,947.43
2019-04-07T21:18:56.384Z,1234.40
2019-04-07T21:21:27.022Z,976.20
2019-04-07T21:23:57.774Z,1078.50
2019-04-07T21:26:29.784Z,1270.63
2019-04-07T21:29:00.787Z,1266.63
2019-04-07T21:31:31.536Z,1375.07
2019-04-07T21:34:02.403Z,1175.33
2019-04-07T21:36:32.149Z,1215.83
2019-04-07T21:39:02.889Z,1309.40
2019-04-07T21:41:34.560Z,1518.60
2019-04-07T21:44:05.980Z,1198.43
2019-04-07T21:46:36.766Z,1565.07
2019-04-07T21:49:07.654Z,1600.93
2019-04-07T21:51:38.390Z,1441.60
2019-04-07T21:54:09.787Z,1395.87
2019-04-07T21:56:43.138Z,1584.97
2019-04-07T21:59:13.997Z,1591.80
2019-04-07T22:01:44.676Z,1617.23
2019-04-07T22:04:18.038Z,1540.53
2019-04-07T22:06:48.612Z,1496.10
2019-04-07T22:09:20.556Z,1506.57
2019-04-07T22:11:49.801Z,1567.53
2019-04-07T22:14:18.934Z,1365.03
2019-04-07T22:16:49.103Z,1342.83
2019-04-07T22:19:18.257Z,1337.67
2019-04-07T22:21:48.053Z,1541.03
2019-04-07T22:24:17.113Z,1452.03
2019-04-07T22:26:49.076Z,1493.80
2019-04-07T22:29:17.046Z,1724.30
2019-04-07T22:31:47.946Z,1614.80
2019-04-07T22:34:17.255Z,1732.27
2019-04-07T22:36:48.034Z,1891.87
2019-04-07T22:39:18.366Z,1735.73
2019-04-07T22:41:48.330Z,1684.97
2019-04-07T22:44:19.898Z,1807.97
2019-04-07T22:46:50.951Z,1837.60
2019-04-07T22:49:19.764Z,1944.60
2019-04-07T22:51:49.783Z,1925.07
2019-04-07T22:54:19.547Z,1942.63
2019-04-07T22:56:48.802Z,1859.80
2019-04-07T22:59:18.242Z,1877.67
2019-04-07T23:01:47.354Z,1912.53
2019-04-07T23:04:16.737Z,1951.00
2019-04-07T23:06:45.709Z,1945.73
2019-04-07T23:09:15.544Z,1999.90
2019-04-07T23:11:44.887Z,1999.90
2019-04-07T23:14:14.032Z,1825.67
2019-04-07T23:16:43.121Z,1991.03
2019-04-07T23:19:12.410Z,1973.27
2019-04-07T23:21:41.750Z,1886.13
2019-04-07T23:24:11.023Z,1942.73
2019-04-07T23:26:40.492Z,1852.47
2019-04-07T23:29:10.050Z,1946.47
2019-04-07T23:31:39.203Z,1862.30
2019-04-07T23:34:08.500Z,1905.23
2019-04-07T23:36:38.248Z,1930.00
2019-04-07T23:39:07.476Z,1922.87
2019-04-07T23:41:37.287Z,1881.90
2019-04-07T23:44:07.318Z,1946.57
2019-04-07T23:46:36.889Z,1833.00
2019-04-07T23:49:05.923Z,1839.83
2019-04-07T23:51:35.178Z,1864.70
2019-04-07T23:54:07.253Z,1906.40
2019-04-07T23:56:37.040Z,1837.37
2019-04-07T23:59:06.309Z,1772.77
